This is the latest recevied weather packets stored in our database for station/object DK0GS-10. If no packets are shown the sender has not sent any weather packets the latest 10 day(s).
| Time | Temp. | Humidity | Pressure | Rain* | Wind** | Luminosity | Snow |
|---|---|---|---|---|---|---|---|
| 1777511722 | 3.33° C | 64% | 1029.7 hPa | 0 mm | - | - | - |
| 1777504547 | 3.33° C | 67% | 1029.5 hPa | 0 mm | - | - | - |
| 1777500323 | 4.44° C | 64% | 1029.2 hPa | 0 mm | - | - | - |
| 1777497935 | 5° C | 62% | 1029 hPa | 0 mm | - | - | - |
| 1777496721 | 5.56° C | 62% | 1028.9 hPa | 0 mm | - | - | - |
| 1777494924 | 6.67° C | 58% | 1028.6 hPa | 0 mm | - | - | - |
| 1777489548 | 10.56° C | 41% | 1028.2 hPa | 0 mm | - | - | - |
| 1777486523 | 11.67° C | 39% | 1027.7 hPa | 0 mm | - | - | - |
| 1777483523 | 12.78° C | 39% | 1027.2 hPa | 0 mm | - | - | - |
| 1777482937 | 12.78° C | 37% | 1027 hPa | 0 mm | - | - | - |
| 1777476323 | 13.89° C | 37% | 1026.9 hPa | 0 mm | - | - | - |
| 1777475123 | 13.89° C | 36% | 1026.9 hPa | 0 mm | - | - | - |
| 1777473923 | 13.89° C | 37% | 1027 hPa | 0 mm | - | - | - |
| 1777463772 | 13.33° C | 39% | 1027.1 hPa | 0 mm | - | - | - |
| 1777461922 | 13.33° C | 38% | 1027.3 hPa | 0 mm | - | - | - |
| 1777460122 | 12.78° C | 39% | 1027.3 hPa | 0 mm | - | - | - |
| 1777458936 | 12.78° C | 40% | 1027.2 hPa | 0 mm | - | - | - |
| 1777456522 | 12.22° C | 44% | 1027.3 hPa | 0 mm | - | - | - |
| 1777455322 | 11.67° C | 46% | 1027.3 hPa | 0 mm | - | - | - |
| 1777449322 | 10° C | 53% | 1026.9 hPa | 0 mm | - | - | - |
| 1777448736 | 10° C | 53% | 1026.8 hPa | 0 mm | - | - | - |
| 1777443322 | 7.78° C | 60% | 1026.4 hPa | 0 mm | - | - | - |
| 1777439161 | 5.56° C | 69% | 1025.7 hPa | 0 mm | - | - | - |
| 1777436122 | 1.67° C | 80% | 1025.2 hPa | 0 mm | - | - | - |
| 1777430736 | 2.78° C | 75% | 1025.1 hPa | 0 mm | - | - | - |
* Rain latest hour (hover to see other rain measurements)
** Current wind speed in m/s (hover to see current wind gust speed)